Time;durP1;ratioP1;P1;durP2;ratioP2;P2;SDS_P1;SDS_P2;PMS_P1;PMS_P2;Temp;Humidity;BMP_temperature;BMP_pressure;BME280_temperature;BME280_humidity;BME280_pressure;Samples;Min_cycle;Max_cycle;Signal;HPM_P1;HPM_P2
2023/07/13 00:01:27;;;;;;;3.17;2.55;;;;;;;24.58;38.48;94154.25;5052592;28;20031;-73
2023/07/13 00:03:53;;;;;;;7.18;3.13;;;;;;;24.54;38.57;94144.56;5050148;28;20111;-74
2023/07/13 00:06:20;;;;;;;4.30;3.17;;;;;;;24.63;38.59;94159.28;5052338;28;20047;-73
2023/07/13 00:08:47;;;;;;;5.03;3.40;;;;;;;24.61;38.20;94156.16;5051881;28;20048;-72
2023/07/13 00:11:13;;;;;;;5.10;3.45;;;;;;;24.55;38.49;94151.53;5052776;28;20465;-73
2023/07/13 00:13:39;;;;;;;5.45;3.05;;;;;;;24.44;38.79;94143.44;5052885;28;20028;-72
2023/07/13 00:16:05;;;;;;;4.75;3.80;;;;;;;24.52;38.98;94149.59;5052988;28;20078;-75
2023/07/13 00:18:31;;;;;;;3.45;2.70;;;;;;;24.43;39.33;94152.75;5051782;28;20544;-72
2023/07/13 00:21:05;;;;;;;6.45;4.00;;;;;;;24.33;39.71;94138.03;5051023;28;20032;-72
2023/07/13 00:23:39;;;;;;;4.50;3.00;;;;;;;24.39;39.67;94138.41;5052405;28;20040;-74
2023/07/13 00:26:06;;;;;;;4.80;3.33;;;;;;;24.32;40.23;94152.00;5050650;28;20044;-73
2023/07/13 00:28:33;;;;;;;5.85;2.53;;;;;;;24.27;40.04;94138.81;5051280;28;20028;-73
2023/07/13 00:30:59;;;;;;;4.38;3.50;;;;;;;24.26;40.28;94137.25;5049925;28;20039;-73
2023/07/13 00:33:24;;;;;;;4.32;2.90;;;;;;;24.23;39.92;94129.88;5052545;28;20033;-73
2023/07/13 00:35:50;;;;;;;5.22;3.00;;;;;;;24.23;39.80;94122.50;5051267;28;20043;-73
2023/07/13 00:38:15;;;;;;;6.97;3.28;;;;;;;24.24;40.14;94139.59;5053055;28;20032;-74
2023/07/13 00:40:41;;;;;;;6.28;3.03;;;;;;;24.17;40.28;94145.81;5051458;28;20031;-72
2023/07/13 00:43:13;;;;;;;4.03;2.85;;;;;;;24.06;40.81;94136.09;5049998;28;20032;-73
2023/07/13 00:45:45;;;;;;;3.33;2.78;;;;;;;24.09;40.62;94140.75;5049435;28;20055;-73
2023/07/13 00:48:18;;;;;;;3.55;2.97;;;;;;;23.95;40.28;94134.16;5050932;28;20041;-73
2023/07/13 00:50:46;;;;;;;6.07;3.13;;;;;;;23.92;40.63;94142.31;5051650;28;20056;-74
2023/07/13 00:53:13;;;;;;;5.85;3.40;;;;;;;23.81;41.19;94139.59;5044495;28;20035;-75
2023/07/13 00:55:39;;;;;;;8.48;5.00;;;;;;;23.82;41.22;94154.75;5051182;28;20095;-72
2023/07/13 00:58:06;;;;;;;6.97;3.28;;;;;;;23.79;41.25;94146.59;5051557;28;20051;-74
2023/07/13 01:00:34;;;;;;;8.13;3.60;;;;;;;23.79;41.35;94154.75;5052270;28;20043;-73
2023/07/13 01:03:01;;;;;;;4.70;3.47;;;;;;;23.73;41.23;94129.16;5053115;28;20423;-73
2023/07/13 01:05:27;;;;;;;5.20;3.30;;;;;;;23.80;41.08;94132.66;5052183;28;20041;-73
2023/07/13 01:07:52;;;;;;;6.35;3.60;;;;;;;23.75;41.40;94127.59;5052563;28;20024;-74
2023/07/13 01:10:22;;;;;;;4.75;3.38;;;;;;;23.76;40.87;94126.41;5051476;28;20119;-73
2023/07/13 01:12:47;;;;;;;9.07;3.88;;;;;;;23.68;41.07;94118.69;5051134;28;20041;-74
2023/07/13 01:15:34;;;;;;;4.63;3.70;;;;;;;23.75;41.63;94135.75;5052348;28;20028;-73
2023/07/13 01:18:00;;;;;;;6.80;3.33;;;;;;;23.64;41.63;94137.69;5059887;28;20058;-72
2023/07/13 01:20:25;;;;;;;4.03;3.53;;;;;;;23.58;42.57;94136.53;5051690;28;20036;-73
2023/07/13 01:22:51;;;;;;;10.25;3.53;;;;;;;23.53;42.53;94139.63;5051094;28;20037;-73
2023/07/13 01:25:17;;;;;;;6.55;3.75;;;;;;;23.52;41.91;94136.13;5052790;28;20396;-74
2023/07/13 01:27:42;;;;;;;7.28;4.20;;;;;;;23.36;42.28;94113.22;5049756;28;20045;-73
2023/07/13 01:30:08;;;;;;;4.60;3.42;;;;;;;23.51;41.73;94123.72;5047942;28;20519;-72
2023/07/13 01:32:33;;;;;;;5.90;4.25;;;;;;;23.47;42.16;94114.75;5051247;28;20048;-73
2023/07/13 01:34:59;;;;;;;4.70;3.80;;;;;;;23.46;42.30;94126.81;5050483;28;20036;-73
2023/07/13 01:37:26;;;;;;;5.72;3.83;;;;;;;23.42;42.55;94128.72;5051804;28;20323;-73
2023/07/13 01:39:51;;;;;;;4.72;3.88;;;;;;;23.33;42.60;94105.84;5049985;28;20946;-72
2023/07/13 01:42:17;;;;;;;9.52;4.65;;;;;;;23.34;42.35;94116.31;5051641;28;20584;-72
2023/07/13 01:44:43;;;;;;;5.43;3.80;;;;;;;23.43;42.18;94107.78;5047754;28;20579;-73
2023/07/13 01:47:09;;;;;;;7.53;4.10;;;;;;;23.35;42.20;94100.81;5050734;28;20494;-74
2023/07/13 01:49:34;;;;;;;11.35;4.30;;;;;;;23.29;42.32;94103.13;5051936;28;20024;-74
2023/07/13 01:52:00;;;;;;;7.80;4.50;;;;;;;23.34;42.53;94121.75;5050611;28;20420;-73
2023/07/13 01:54:26;;;;;;;6.93;4.05;;;;;;;23.30;42.79;94115.53;5050035;28;20086;-72
2023/07/13 01:56:51;;;;;;;8.05;3.85;;;;;;;23.22;43.04;94108.53;5051434;28;20489;-73
2023/07/13 01:59:16;;;;;;;9.25;4.25;;;;;;;23.27;43.12;94123.69;5048837;28;20044;-72
2023/07/13 02:01:42;;;;;;;7.22;4.03;;;;;;;23.26;43.31;94122.13;5050263;28;20024;-73
2023/07/13 02:04:07;;;;;;;4.70;4.20;;;;;;;23.09;43.34;94110.84;5051786;28;20037;-73
2023/07/13 02:06:33;;;;;;;5.28;3.70;;;;;;;23.21;43.61;94138.78;5054070;28;20047;-73
2023/07/13 02:08:58;;;;;;;4.55;3.95;;;;;;;23.17;43.46;94134.13;5055082;28;20037;-74
2023/07/13 02:11:24;;;;;;;4.68;4.03;;;;;;;23.03;43.62;94106.19;5054593;28;20048;-74
2023/07/13 02:13:50;;;;;;;4.57;4.00;;;;;;;23.13;43.66;94133.34;5053178;28;20376;-74
2023/07/13 02:16:16;;;;;;;5.72;3.65;;;;;;;23.03;43.30;94120.53;5052773;28;20028;-73
2023/07/13 02:18:41;;;;;;;5.85;4.15;;;;;;;23.20;43.32;94134.53;5053689;28;20041;-74
2023/07/13 02:21:07;;;;;;;6.13;4.22;;;;;;;23.09;44.04;94138.00;5054312;28;20451;-73
2023/07/13 02:23:32;;;;;;;7.05;4.43;;;;;;;22.94;44.37;94127.47;5051630;28;20040;-72
2023/07/13 02:26:00;;;;;;;7.45;3.95;;;;;;;22.95;44.28;94135.25;5054935;28;20026;-73
2023/07/13 02:28:25;;;;;;;6.72;4.38;;;;;;;22.88;44.45;94143.34;5052110;28;21007;-73
2023/07/13 02:30:51;;;;;;;6.05;5.28;;;;;;;22.70;44.55;94124.28;5053012;28;20520;-72
2023/07/13 02:33:16;;;;;;;8.98;5.03;;;;;;;22.90;44.84;94151.09;5053275;28;20040;-72
2023/07/13 02:35:42;;;;;;;7.45;5.00;;;;;;;22.77;44.71;94139.81;5054756;28;20070;-73
2023/07/13 02:38:08;;;;;;;5.78;4.63;;;;;;;22.80;44.94;94152.59;5053103;28;20035;-72
2023/07/13 02:40:35;;;;;;;7.72;4.35;;;;;;;22.65;45.25;94134.72;5054871;28;20074;-72
2023/07/13 02:43:01;;;;;;;6.10;4.53;;;;;;;22.64;45.35;94136.66;5054835;28;20533;-73
2023/07/13 02:45:26;;;;;;;7.10;4.35;;;;;;;22.67;45.13;94143.25;5052750;28;20037;-72
2023/07/13 02:47:52;;;;;;;4.85;4.32;;;;;;;22.62;45.29;94130.84;5052327;28;20042;-72
2023/07/13 02:50:17;;;;;;;5.95;4.78;;;;;;;22.45;44.89;94109.09;5052549;28;20501;-73
2023/07/13 02:52:43;;;;;;;8.15;4.65;;;;;;;22.56;45.04;94123.47;5053354;28;20028;-73
2023/07/13 02:55:08;;;;;;;6.85;4.05;;;;;;;22.63;44.54;94123.50;5051764;28;20058;-73
2023/07/13 02:57:34;;;;;;;9.40;4.78;;;;;;;22.67;44.80;94140.56;5052610;28;20468;-73
2023/07/13 03:00:00;;;;;;;5.60;4.65;;;;;;;22.60;45.39;94133.16;5052302;28;20103;-72
2023/07/13 03:02:27;;;;;;;7.05;4.47;;;;;;;22.59;45.05;94136.25;5051617;28;20036;-73
2023/07/13 03:04:54;;;;;;;5.35;4.43;;;;;;;22.62;44.92;94133.56;5054162;28;20094;-73
2023/07/13 03:07:20;;;;;;;8.82;4.75;;;;;;;22.62;45.52;94136.28;5050855;28;20123;-73
2023/07/13 03:09:45;;;;;;;7.40;4.57;;;;;;;22.52;45.68;94141.66;5052238;28;20044;-73
2023/07/13 03:12:10;;;;;;;7.03;4.32;;;;;;;22.51;45.80;94150.94;5052904;28;20579;-72
2023/07/13 03:14:36;;;;;;;6.18;5.03;;;;;;;22.51;46.12;94153.63;5052697;28;20040;-73
2023/07/13 03:17:01;;;;;;;6.90;4.60;;;;;;;22.39;46.00;94127.63;5050351;28;20024;-73
2023/07/13 03:19:27;;;;;;;8.05;4.85;;;;;;;22.54;45.86;94155.59;5050662;28;20379;-73
2023/07/13 03:21:52;;;;;;;6.97;4.85;;;;;;;22.51;46.65;94150.94;5053199;28;20056;-72
2023/07/13 03:24:17;;;;;;;6.88;5.20;;;;;;;22.34;47.05;94141.53;5052765;28;20051;-72
2023/07/13 03:26:43;;;;;;;7.47;5.45;;;;;;;22.35;46.98;94139.63;5052419;28;20640;-73
2023/07/13 03:29:08;;;;;;;8.77;5.78;;;;;;;22.10;47.43;94115.84;5051764;28;20035;-73
2023/07/13 03:31:38;;;;;;;9.90;5.80;;;;;;;22.36;47.76;94149.31;5049387;28;20119;-72
2023/07/13 03:34:03;;;;;;;8.15;5.82;;;;;;;22.41;47.61;94152.44;5054618;28;20056;-73
2023/07/13 03:36:32;;;;;;;7.90;5.35;;;;;;;22.38;47.85;94152.44;5051123;28;20575;-73
2023/07/13 03:39:00;;;;;;;7.65;4.72;;;;;;;22.39;47.58;94153.97;5052173;28;20074;-71
2023/07/13 03:41:25;;;;;;;6.88;5.60;;;;;;;22.43;47.72;94163.69;5052167;28;20044;-72
2023/07/13 03:43:52;;;;;;;8.90;6.60;;;;;;;22.44;47.74;94159.78;5049922;28;20480;-73
2023/07/13 03:46:18;;;;;;;10.73;6.35;;;;;;;22.47;47.96;94158.28;5051494;28;20094;-72
2023/07/13 03:48:46;;;;;;;9.55;5.50;;;;;;;22.46;48.32;94156.72;5049129;28;20588;-72
2023/07/13 03:51:14;;;;;;;8.25;5.82;;;;;;;22.52;48.33;94155.19;5051882;28;20151;-73
2023/07/13 03:53:43;;;;;;;12.32;6.60;;;;;;;22.55;48.76;94154.44;5052534;28;20034;-72
2023/07/13 03:56:09;;;;;;;6.43;5.47;;;;;;;22.60;48.60;94159.50;5050717;28;20877;-73
2023/07/13 03:58:37;;;;;;;8.38;6.10;;;;;;;22.60;49.09;94154.06;5052934;28;20032;-73
2023/07/13 04:01:05;;;;;;;6.88;5.78;;;;;;;22.68;48.80;94155.66;5050180;28;20132;-73
2023/07/13 04:03:32;;;;;;;8.40;5.15;;;;;;;22.70;48.86;94147.91;5050907;28;20041;-73
2023/07/13 04:06:02;;;;;;;8.98;6.30;;;;;;;22.78;49.31;94156.88;5049715;28;20128;-73
2023/07/13 04:08:29;;;;;;;12.20;7.10;;;;;;;22.84;48.30;94153.38;5051418;28;20148;-72
2023/07/13 04:10:56;;;;;;;9.40;6.57;;;;;;;22.85;49.10;94148.75;5049584;28;20065;-73
2023/07/13 04:13:21;;;;;;;11.18;7.57;;;;;;;22.92;48.14;94155.00;5048992;28;20052;-73
2023/07/13 04:15:47;;;;;;;10.32;6.20;;;;;;;22.99;48.24;94157.72;5051578;28;20036;-73
2023/07/13 04:18:12;;;;;;;7.60;6.53;;;;;;;22.90;47.65;94132.91;5051834;28;20071;-73
2023/07/13 04:20:38;;;;;;;10.27;6.25;;;;;;;23.15;47.63;94152.72;5050777;28;20396;-72
2023/07/13 04:23:03;;;;;;;9.52;5.90;;;;;;;23.11;46.78;94143.81;5052340;28;20098;-72
2023/07/13 04:25:29;;;;;;;11.35;6.47;;;;;;;23.12;46.82;94153.47;5050757;28;20030;-72
2023/07/13 04:27:54;;;;;;;8.75;6.72;;;;;;;23.12;46.60;94145.34;5050396;28;20071;-73
2023/07/13 04:30:20;;;;;;;11.05;6.25;;;;;;;23.31;46.52;94165.16;5051709;28;20052;-72
2023/07/13 04:32:46;;;;;;;8.98;6.43;;;;;;;23.38;47.00;94168.66;5049095;28;20056;-71
2023/07/13 04:35:12;;;;;;;9.85;7.53;;;;;;;23.45;46.08;94163.25;5052456;28;20016;-71
2023/07/13 04:37:38;;;;;;;11.98;8.05;;;;;;;23.46;46.91;94166.75;5049501;28;20071;-71
2023/07/13 04:40:04;;;;;;;11.82;7.53;;;;;;;23.45;47.69;94165.19;5050351;28;20040;-72
2023/07/13 04:42:29;;;;;;;9.80;6.95;;;;;;;23.50;47.46;94171.03;5049080;28;20471;-71
2023/07/13 04:44:55;;;;;;;13.38;7.43;;;;;;;23.52;47.14;94163.28;5051235;28;20045;-71
2023/07/13 04:47:20;;;;;;;10.95;6.78;;;;;;;23.62;46.66;94175.31;5050940;28;20028;-72
2023/07/13 04:49:46;;;;;;;11.82;7.90;;;;;;;23.67;46.35;94180.34;5051660;28;20025;-71
2023/07/13 04:52:12;;;;;;;18.00;8.80;;;;;;;23.71;46.27;94174.94;5051448;28;20497;-71
2023/07/13 04:54:38;;;;;;;18.77;8.32;;;;;;;23.74;45.98;94166.78;5050315;28;20440;-73
2023/07/13 04:57:06;;;;;;;14.60;8.45;;;;;;;23.93;45.59;94185.41;5051756;28;20688;-70
2023/07/13 04:59:32;;;;;;;13.05;8.23;;;;;;;23.79;46.20;94171.81;5044653;28;20319;-70
2023/07/13 05:01:57;;;;;;;10.70;7.68;;;;;;;23.86;46.42;94188.09;5051318;28;20464;-73
2023/07/13 05:04:23;;;;;;;16.92;8.20;;;;;;;23.90;46.13;94172.59;5051280;28;20028;-74
2023/07/13 05:06:48;;;;;;;11.88;7.28;;;;;;;23.94;45.52;94178.03;5049263;28;20036;-73
2023/07/13 05:09:13;;;;;;;18.60;7.95;;;;;;;23.96;45.60;94176.47;5051036;28;20052;-73
2023/07/13 05:11:39;;;;;;;15.63;8.55;;;;;;;24.04;45.55;94184.63;5050406;28;20127;-73
2023/07/13 05:14:04;;;;;;;18.73;8.35;;;;;;;24.09;46.45;94190.44;5050899;28;20447;-73
2023/07/13 05:16:31;;;;;;;14.13;9.07;;;;;;;23.96;47.38;94190.03;5051258;28;20538;-72
2023/07/13 05:18:57;;;;;;;15.85;8.82;;;;;;;24.08;47.16;94198.97;5050869;28;20032;-72
2023/07/13 05:21:22;;;;;;;12.85;9.95;;;;;;;24.08;46.84;94190.81;5049886;28;20499;-71
2023/07/13 05:23:48;;;;;;;14.40;9.40;;;;;;;24.22;47.46;94213.34;5050500;28;20033;-72
2023/07/13 05:26:13;;;;;;;16.63;11.50;;;;;;;24.17;47.67;94189.28;5048955;28;20214;-72
2023/07/13 05:28:39;;;;;;;16.23;12.05;;;;;;;24.33;48.82;94202.47;5052155;28;20473;-72
2023/07/13 05:31:07;;;;;;;16.00;12.23;;;;;;;24.26;48.89;94197.03;5048957;28;20116;-71
2023/07/13 05:33:32;;;;;;;19.23;11.48;;;;;;;24.34;48.60;94209.47;5046259;28;20409;-72
2023/07/13 05:35:58;;;;;;;16.05;11.80;;;;;;;24.39;48.42;94206.34;5048875;28;20033;-72
2023/07/13 05:38:23;;;;;;;17.90;11.73;;;;;;;24.37;48.05;94193.16;5045376;28;20036;-72
2023/07/13 05:40:50;;;;;;;14.07;10.70;;;;;;;24.54;46.17;94210.56;5051166;28;20024;-72
2023/07/13 05:43:15;;;;;;;19.75;10.88;;;;;;;24.60;46.17;94206.28;5055199;28;20037;-71
2023/07/13 05:45:41;;;;;;;16.77;10.43;;;;;;;24.69;46.66;94203.91;5054246;28;20028;-71
2023/07/13 05:48:06;;;;;;;13.50;10.30;;;;;;;24.75;46.47;94199.66;5053657;28;20132;-72
2023/07/13 05:50:32;;;;;;;19.55;10.30;;;;;;;24.89;46.42;94204.28;5054060;28;20072;-72
2023/07/13 05:52:58;;;;;;;14.25;9.82;;;;;;;24.83;46.95;94198.47;5054882;28;20040;-71
2023/07/13 05:55:23;;;;;;;16.55;10.05;;;;;;;24.90;46.68;94202.34;5056062;28;20043;-72
2023/07/13 05:57:49;;;;;;;13.32;9.80;;;;;;;24.90;46.40;94196.88;5052879;28;20626;-71
2023/07/13 06:00:15;;;;;;;16.60;10.82;;;;;;;25.02;46.71;94210.06;5054305;28;20592;-72
2023/07/13 06:02:41;;;;;;;18.60;9.68;;;;;;;25.11;46.41;94196.81;5052565;28;20040;-71
2023/07/13 06:05:07;;;;;;;14.43;10.43;;;;;;;25.19;46.71;94181.97;5053451;28;20051;-71
2023/07/13 06:07:32;;;;;;;13.30;9.23;;;;;;;25.30;46.65;94190.88;5053854;28;20485;-72
2023/07/13 06:09:59;;;;;;;17.95;9.88;;;;;;;25.33;45.77;94181.94;5054393;28;20036;-72
2023/07/13 06:12:25;;;;;;;14.68;8.48;;;;;;;25.33;45.59;94172.97;5054051;28;20036;-72
2023/07/13 06:14:50;;;;;;;15.45;8.88;;;;;;;25.37;44.77;94171.78;5052586;28;20051;-72
2023/07/13 06:17:15;;;;;;;17.08;8.77;;;;;;;25.49;44.99;94195.06;5053804;28;20389;-72
2023/07/13 06:19:41;;;;;;;13.45;8.90;;;;;;;25.62;44.23;94205.09;5052351;28;20570;-72
2023/07/13 06:22:07;;;;;;;16.67;8.90;;;;;;;25.59;43.77;94197.72;5054042;28;20044;-72
2023/07/13 06:24:32;;;;;;;18.67;8.20;;;;;;;25.74;42.85;94208.50;5051929;28;20078;-72
2023/07/13 06:26:57;;;;;;;18.15;9.18;;;;;;;25.85;43.01;94206.50;5053593;28;20028;-72
2023/07/13 06:29:23;;;;;;;17.65;9.13;;;;;;;25.90;44.04;94197.94;5053196;28;20072;-71
2023/07/13 06:31:48;;;;;;;15.93;8.73;;;;;;;25.88;44.04;94195.56;5053444;28;20025;-71
2023/07/13 06:34:13;;;;;;;12.68;9.23;;;;;;;25.90;43.75;94198.69;5053512;28;20040;-71
2023/07/13 06:36:39;;;;;;;13.50;8.45;;;;;;;25.96;43.25;94188.13;5054507;28;20047;-71
2023/07/13 06:39:06;;;;;;;13.40;8.57;;;;;;;26.19;41.79;94198.44;5050251;28;20047;-71
2023/07/13 06:41:32;;;;;;;12.02;7.97;;;;;;;26.24;41.86;94192.56;5054096;28;20097;-71
2023/07/13 06:43:58;;;;;;;8.48;7.40;;;;;;;26.20;41.81;94178.97;5051027;28;20794;-71
2023/07/13 06:46:23;;;;;;;12.77;7.72;;;;;;;26.30;40.89;94194.44;5054673;28;20032;-71
2023/07/13 06:48:50;;;;;;;14.35;8.02;;;;;;;26.39;41.97;94197.50;5050729;28;20041;-72
2023/07/13 06:51:16;;;;;;;12.23;8.70;;;;;;;26.39;41.00;94185.81;5052926;28;20412;-71
2023/07/13 06:53:43;;;;;;;15.20;9.05;;;;;;;26.55;42.13;94192.25;5053144;28;20111;-71
2023/07/13 06:56:10;;;;;;;13.55;8.20;;;;;;;26.60;42.42;94201.19;5051620;28;20028;-72
2023/07/13 06:58:35;;;;;;;15.50;9.63;;;;;;;26.58;42.78;94195.38;5055463;28;20020;-71
2023/07/13 07:01:01;;;;;;;15.05;9.35;;;;;;;26.57;43.11;94197.31;5049934;28;20570;-72
2023/07/13 07:03:26;;;;;;;15.52;8.30;;;;;;;26.61;42.84;94191.81;5053084;28;20036;-71
2023/07/13 07:05:51;;;;;;;21.02;9.50;;;;;;;26.66;42.34;94194.09;5050333;28;20598;-71
2023/07/13 07:08:17;;;;;;;13.52;7.78;;;;;;;26.81;42.44;94209.13;5054130;28;20056;-70
2023/07/13 07:10:42;;;;;;;16.10;10.18;;;;;;;26.81;42.89;94190.03;5051790;28;20388;-74
2023/07/13 07:13:08;;;;;;;13.60;9.43;;;;;;;26.95;43.00;94189.88;5051535;28;20037;-74
2023/07/13 07:15:35;;;;;;;19.42;9.75;;;;;;;26.95;42.60;94177.00;5051238;28;20570;-74
2023/07/13 07:18:00;;;;;;;16.58;9.85;;;;;;;27.05;43.39;94189.00;5053311;28;20353;-72
2023/07/13 07:20:26;;;;;;;12.73;9.05;;;;;;;27.12;43.34;94194.38;5051680;28;20036;-73
2023/07/13 07:22:52;;;;;;;16.02;9.65;;;;;;;27.13;42.35;94195.91;5050830;28;20024;-73
2023/07/13 07:25:17;;;;;;;16.63;10.05;;;;;;;27.25;42.22;94198.09;5053547;28;20155;-71
2023/07/13 07:27:44;;;;;;;15.90;9.60;;;;;;;27.30;41.06;94194.91;5053377;28;20033;-74
2023/07/13 07:30:11;;;;;;;12.40;8.32;;;;;;;27.18;40.72;94187.25;5053404;28;20103;-73
2023/07/13 07:32:36;;;;;;;16.48;9.00;;;;;;;27.20;40.69;94184.91;5051317;28;20041;-73
2023/07/13 07:35:01;;;;;;;14.82;8.18;;;;;;;27.34;40.64;94195.63;5051264;28;20035;-73
2023/07/13 07:37:27;;;;;;;15.65;8.93;;;;;;;27.40;41.12;94188.53;5050630;28;20017;-74
2023/07/13 07:39:52;;;;;;;11.25;8.82;;;;;;;27.43;40.98;94181.47;5051545;28;20502;-73
2023/07/13 07:42:18;;;;;;;13.82;9.02;;;;;;;27.46;40.22;94183.38;5051562;28;20036;-73
2023/07/13 07:44:43;;;;;;;12.05;8.65;;;;;;;27.61;41.01;94182.03;5053133;28;20121;-73
2023/07/13 07:47:09;;;;;;;17.75;8.38;;;;;;;27.58;40.40;94176.59;5050923;28;20021;-73
2023/07/13 07:49:36;;;;;;;15.13;8.82;;;;;;;27.46;40.42;94160.75;5052577;28;20025;-73
2023/07/13 07:52:01;;;;;;;13.27;8.52;;;;;;;27.67;41.19;94177.63;5049633;28;20082;-72
2023/07/13 07:54:27;;;;;;;15.82;8.50;;;;;;;27.67;40.55;94179.56;5049721;28;20045;-73
2023/07/13 07:56:52;;;;;;;15.90;8.93;;;;;;;27.64;40.29;94180.41;5051954;28;20402;-73
2023/07/13 07:59:19;;;;;;;15.30;7.60;;;;;;;27.62;40.82;94174.59;5050232;28;20120;-72
2023/07/13 08:01:46;;;;;;;14.00;8.30;;;;;;;27.62;40.38;94166.41;5052195;28;20036;-73
2023/07/13 08:04:12;;;;;;;15.32;8.45;;;;;;;27.71;40.74;94172.13;5049414;28;20036;-73
2023/07/13 08:06:37;;;;;;;18.27;8.85;;;;;;;27.71;41.22;94150.25;5052251;28;20086;-72
2023/07/13 08:09:04;;;;;;;15.68;10.20;;;;;;;27.85;41.42;94154.72;5051811;28;20036;-73
2023/07/13 08:11:29;;;;;;;18.75;8.70;;;;;;;27.82;40.83;94153.59;5050498;28;20075;-73
2023/07/13 08:13:55;;;;;;;15.63;8.68;;;;;;;27.77;40.49;94140.38;5051626;28;20123;-73
2023/07/13 08:16:21;;;;;;;17.00;8.23;;;;;;;27.77;40.86;94138.44;5052294;28;20033;-73
2023/07/13 08:18:46;;;;;;;12.57;8.05;;;;;;;27.90;41.11;94143.31;5050251;28;21272;-73
2023/07/13 08:21:12;;;;;;;14.13;7.97;;;;;;;27.94;41.50;94141.28;5050658;28;20028;-73
2023/07/13 08:23:37;;;;;;;17.48;9.07;;;;;;;28.01;42.19;94141.94;5052670;28;20515;-73
2023/07/13 08:26:04;;;;;;;11.52;7.30;;;;;;;28.12;41.35;94153.50;5051930;28;20025;-73
2023/07/13 08:28:29;;;;;;;13.77;8.18;;;;;;;28.08;39.81;94139.09;5050364;28;20049;-73
2023/07/13 08:30:55;;;;;;;10.48;7.50;;;;;;;28.07;39.89;94144.97;5053238;28;20169;-73
2023/07/13 08:33:24;;;;;;;17.55;8.32;;;;;;;28.16;39.90;94145.22;5051845;28;20044;-73
2023/07/13 08:35:49;;;;;;;9.85;7.40;;;;;;;28.12;40.13;94144.53;5051224;28;20040;-74
2023/07/13 08:38:16;;;;;;;15.20;8.30;;;;;;;28.06;39.99;94146.94;5050057;28;20069;-73
2023/07/13 08:40:42;;;;;;;13.00;8.35;;;;;;;28.19;41.21;94138.94;5050531;28;20028;-73
2023/07/13 08:43:18;;;;;;;16.00;7.70;;;;;;;28.10;39.74;94125.81;5051018;28;20938;-73
2023/07/13 08:45:50;;;;;;;16.80;7.85;;;;;;;28.15;39.22;94139.00;5031633;28;20024;-73
2023/07/13 08:48:28;;;;;;;19.35;9.05;;;;;;;28.25;38.92;94137.28;5049562;28;20048;-72
2023/07/13 08:51:09;;;;;;;21.60;8.65;;;;;;;28.24;39.12;94139.22;5052287;28;20072;-74
2023/07/13 08:53:43;;;;;;;11.30;7.32;;;;;;;28.20;39.33;94135.78;5050981;28;20045;-74
2023/07/13 08:56:18;;;;;;;18.43;8.60;;;;;;;28.10;39.32;94112.16;5050530;28;20107;-73
2023/07/13 08:58:47;;;;;;;11.15;8.02;;;;;;;28.36;39.10;94142.53;5052525;28;20127;-73
2023/07/13 09:01:32;;;;;;;8.45;7.13;;;;;;;28.43;39.36;94145.16;5050754;28;20035;-71
2023/07/13 09:04:14;;;;;;;14.60;8.25;;;;;;;28.42;38.70;94152.56;5048417;28;20043;-72
2023/07/13 09:07:08;;;;;;;12.57;8.07;;;;;;;28.46;37.94;94160.69;5052393;28;20048;-71
2023/07/13 09:10:02;;;;;;;19.35;9.75;;;;;;;28.55;38.76;94163.66;5053563;28;20025;-71
2023/07/13 09:12:34;;;;;;;13.13;7.53;;;;;;;28.45;37.72;94172.88;5049101;28;20337;-72
2023/07/13 09:15:08;;;;;;;12.05;7.68;;;;;;;28.32;37.96;94169.16;5054251;28;20036;-71
2023/07/13 09:17:45;;;;;;;12.07;7.60;;;;;;;28.30;38.30;94174.31;5054515;28;20037;-71
2023/07/13 09:20:29;;;;;;;7.57;6.82;;;;;;;28.43;37.53;94172.50;5052505;28;20098;-72
2023/07/13 09:22:59;;;;;;;12.27;6.97;;;;;;;28.43;36.85;94175.22;5054996;28;20052;-71
2023/07/13 09:25:30;;;;;;;9.45;6.82;;;;;;;28.40;36.40;94168.63;5055579;28;20048;-71
2023/07/13 09:28:02;;;;;;;13.57;6.93;;;;;;;28.33;35.96;94171.50;5054033;28;20140;-72
2023/07/13 09:30:38;;;;;;;12.82;7.15;;;;;;;28.20;36.44;94151.44;5052798;28;20041;-72
2023/07/13 09:33:04;;;;;;;12.68;7.97;;;;;;;28.39;36.56;94163.59;5053272;28;20029;-71
2023/07/13 09:35:30;;;;;;;9.50;7.63;;;;;;;28.50;37.18;94175.13;5052980;28;20033;-71
2023/07/13 09:38:11;;;;;;;21.80;8.00;;;;;;;28.54;37.23;94162.13;5055388;28;20498;-72
2023/07/13 09:40:54;;;;;;;12.32;7.72;;;;;;;28.46;37.09;94153.28;5053996;28;20094;-72
2023/07/13 09:43:20;;;;;;;13.25;8.52;;;;;;;28.60;37.47;94163.16;5053759;28;20036;-72
2023/07/13 09:45:47;;;;;;;15.65;7.63;;;;;;;28.59;37.02;94156.97;5053677;28;20776;-71
2023/07/13 09:48:15;;;;;;;11.00;7.80;;;;;;;28.73;39.30;94146.94;5056195;28;20079;-71
2023/07/13 09:50:41;;;;;;;12.10;8.18;;;;;;;28.80;36.51;94133.88;5054004;28;20044;-71
2023/07/13 09:53:13;;;;;;;11.60;7.82;;;;;;;28.91;38.45;94139.91;5053910;28;20024;-72
2023/07/13 09:55:40;;;;;;;11.13;7.97;;;;;;;28.76;36.59;94105.03;5054289;28;20032;-72
2023/07/13 09:58:23;;;;;;;10.40;6.97;;;;;;;28.93;35.89;94121.13;5053878;28;20642;-71
2023/07/13 10:00:57;;;;;;;15.20;8.48;;;;;;;29.00;36.46;94128.38;5050561;28;20033;-71
2023/07/13 10:03:29;;;;;;;15.45;7.82;;;;;;;29.09;36.94;94128.56;5054038;28;20183;-71
2023/07/13 10:06:09;;;;;;;9.63;7.60;;;;;;;29.13;36.97;94123.03;5052811;28;20523;-71
2023/07/13 10:08:35;;;;;;;17.00;9.18;;;;;;;29.09;37.16;94101.97;5053402;28;20055;-71
2023/07/13 10:11:10;;;;;;;11.18;8.05;;;;;;;29.15;36.50;94099.50;5053669;28;20143;-72
2023/07/13 10:13:42;;;;;;;10.90;7.93;;;;;;;29.25;36.71;94097.75;5053954;28;20027;-72
2023/07/13 10:16:09;;;;;;;10.30;7.45;;;;;;;29.21;35.73;94092.34;5053455;28;20037;-72
2023/07/13 10:18:58;;;;;;;10.70;5.85;;;;;;;29.25;32.68;94100.50;5053708;28;20533;-72
2023/07/13 10:21:30;;;;;;;10.02;4.80;;;;;;;29.24;32.20;94101.69;5050859;28;20063;-71
2023/07/13 10:24:10;;;;;;;5.53;4.25;;;;;;;29.28;28.76;94085.97;5069045;28;20044;-71
2023/07/13 10:26:39;;;;;;;6.18;3.65;;;;;;;29.44;28.25;94096.91;5051700;28;20040;-71
2023/07/13 10:29:09;;;;;;;5.47;3.70;;;;;;;29.49;26.96;94093.66;5054922;28;20127;-72
2023/07/13 10:31:38;;;;;;;6.47;3.72;;;;;;;29.47;27.28;94096.84;5053677;28;20032;-71
2023/07/13 10:34:05;;;;;;;7.78;3.42;;;;;;;29.40;27.75;94079.78;5055133;28;20039;-72
2023/07/13 10:36:39;;;;;;;9.27;3.85;;;;;;;29.53;28.70;94091.59;5053851;28;20032;-71
2023/07/13 10:39:05;;;;;;;9.73;4.43;;;;;;;29.49;28.04;94085.44;5049641;28;20504;-72
2023/07/13 10:41:41;;;;;;;8.18;3.70;;;;;;;29.59;28.68;94081.69;5053698;28;20032;-72
2023/07/13 10:44:16;;;;;;;8.18;4.53;;;;;;;29.55;28.43;94067.31;5052309;28;20101;-71
2023/07/13 10:46:43;;;;;;;6.78;4.10;;;;;;;29.58;28.41;94060.19;5054461;28;20147;-72
2023/07/13 10:49:11;;;;;;;7.40;3.83;;;;;;;29.74;28.63;94069.19;5053877;28;20029;-72
2023/07/13 10:51:37;;;;;;;12.25;4.60;;;;;;;29.74;29.22;94065.69;5053734;28;20040;-71
2023/07/13 10:54:23;;;;;;;6.57;4.20;;;;;;;29.92;28.16;94069.50;5053110;28;20040;-72
2023/07/13 10:56:52;;;;;;;7.47;4.30;;;;;;;29.84;28.16;94057.19;5053595;28;20040;-72
2023/07/13 10:59:27;;;;;;;6.28;3.88;;;;;;;29.98;28.99;94058.03;5051488;28;20047;-72
2023/07/13 11:02:17;;;;;;;6.70;4.50;;;;;;;30.01;27.32;94054.44;5054376;28;20032;-71
2023/07/13 11:04:48;;;;;;;7.68;4.18;;;;;;;29.98;27.58;94045.09;5046232;28;20044;-72
2023/07/13 11:07:23;;;;;;;4.50;3.67;;;;;;;30.09;28.62;94050.28;5050606;28;20090;-71
2023/07/13 11:09:54;;;;;;;6.32;4.00;;;;;;;30.10;27.15;94046.34;5053326;28;20132;-71
2023/07/13 11:12:20;;;;;;;4.78;3.53;;;;;;;30.09;28.41;94036.59;5051967;28;20422;-71
2023/07/13 11:14:54;;;;;;;7.60;4.68;;;;;;;30.21;29.41;94036.66;5053924;28;20047;-71
2023/07/13 11:17:36;;;;;;;8.05;4.70;;;;;;;30.34;29.12;94023.00;5053649;28;20048;-71
2023/07/13 11:20:14;;;;;;;8.75;4.43;;;;;;;30.36;28.84;94015.06;5053557;28;20069;-71
2023/07/13 11:23:08;;;;;;;6.07;4.30;;;;;;;29.78;27.67;93915.59;5052937;28;20103;-72
2023/07/13 11:25:37;;;;;;;5.85;4.20;;;;;;;30.39;28.24;94007.97;5031822;28;20044;-72
2023/07/13 11:28:11;;;;;;;10.88;4.70;;;;;;;30.58;27.75;94018.75;5051042;28;20034;-73
2023/07/13 11:30:46;;;;;;;11.00;4.43;;;;;;;30.54;27.42;94015.34;5052494;28;20516;-71
2023/07/13 11:33:26;;;;;;;;;;;;;;;30.58;28.42;94016.00;5053547;28;20588;-71